sensor_id;sensor_type;location;lat;lon;timestamp;P1;durP1;ratioP1;P2;durP2;ratioP2
4577;SDS011;2301;47.354;8.528;2023-08-06T00:01:29;9.53;;;2.47;;
4577;SDS011;2301;47.354;8.528;2023-08-06T00:03:56;5.17;;;1.73;;
4577;SDS011;2301;47.354;8.528;2023-08-06T00:06:24;3.30;;;1.60;;
4577;SDS011;2301;47.354;8.528;2023-08-06T00:08:51;2.90;;;1.80;;
4577;SDS011;2301;47.354;8.528;2023-08-06T00:11:18;4.20;;;1.70;;
4577;SDS011;2301;47.354;8.528;2023-08-06T00:13:44;4.70;;;1.90;;
4577;SDS011;2301;47.354;8.528;2023-08-06T00:16:13;4.47;;;1.97;;
4577;SDS011;2301;47.354;8.528;2023-08-06T00:18:40;3.47;;;1.70;;
4577;SDS011;2301;47.354;8.528;2023-08-06T00:21:07;4.93;;;1.90;;
4577;SDS011;2301;47.354;8.528;2023-08-06T00:23:34;7.30;;;1.93;;
4577;SDS011;2301;47.354;8.528;2023-08-06T00:26:01;3.87;;;1.70;;
4577;SDS011;2301;47.354;8.528;2023-08-06T00:28:27;3.00;;;1.60;;
4577;SDS011;2301;47.354;8.528;2023-08-06T00:30:54;2.30;;;1.50;;
4577;SDS011;2301;47.354;8.528;2023-08-06T00:33:23;3.60;;;1.93;;
4577;SDS011;2301;47.354;8.528;2023-08-06T00:35:50;2.10;;;1.40;;
4577;SDS011;2301;47.354;8.528;2023-08-06T00:38:18;4.17;;;1.50;;
4577;SDS011;2301;47.354;8.528;2023-08-06T00:40:44;3.53;;;1.70;;
4577;SDS011;2301;47.354;8.528;2023-08-06T00:43:11;2.43;;;1.53;;
4577;SDS011;2301;47.354;8.528;2023-08-06T00:45:38;5.83;;;1.83;;
4577;SDS011;2301;47.354;8.528;2023-08-06T00:48:05;2.77;;;1.47;;
4577;SDS011;2301;47.354;8.528;2023-08-06T00:50:34;3.00;;;1.50;;
4577;SDS011;2301;47.354;8.528;2023-08-06T00:53:01;4.30;;;1.60;;
4577;SDS011;2301;47.354;8.528;2023-08-06T00:55:28;2.67;;;1.40;;
4577;SDS011;2301;47.354;8.528;2023-08-06T00:57:55;4.10;;;1.50;;
4577;SDS011;2301;47.354;8.528;2023-08-06T01:00:23;2.87;;;1.40;;
4577;SDS011;2301;47.354;8.528;2023-08-06T01:02:52;3.20;;;1.33;;
4577;SDS011;2301;47.354;8.528;2023-08-06T01:05:20;7.20;;;1.60;;
4577;SDS011;2301;47.354;8.528;2023-08-06T01:07:51;2.23;;;1.37;;
4577;SDS011;2301;47.354;8.528;2023-08-06T01:10:33;2.43;;;1.30;;
4577;SDS011;2301;47.354;8.528;2023-08-06T01:13:11;3.90;;;1.40;;
4577;SDS011;2301;47.354;8.528;2023-08-06T01:15:46;2.03;;;1.20;;
4577;SDS011;2301;47.354;8.528;2023-08-06T01:18:16;2.83;;;1.40;;
4577;SDS011;2301;47.354;8.528;2023-08-06T01:20:44;3.20;;;1.50;;
4577;SDS011;2301;47.354;8.528;2023-08-06T01:23:11;4.10;;;1.60;;
4577;SDS011;2301;47.354;8.528;2023-08-06T01:25:39;3.93;;;1.63;;
4577;SDS011;2301;47.354;8.528;2023-08-06T01:28:15;3.83;;;1.80;;
4577;SDS011;2301;47.354;8.528;2023-08-06T01:30:47;2.10;;;1.40;;
4577;SDS011;2301;47.354;8.528;2023-08-06T01:33:18;2.80;;;1.53;;
4577;SDS011;2301;47.354;8.528;2023-08-06T01:35:50;3.00;;;1.50;;
4577;SDS011;2301;47.354;8.528;2023-08-06T01:38:19;2.53;;;1.47;;
4577;SDS011;2301;47.354;8.528;2023-08-06T01:40:46;4.60;;;1.40;;
4577;SDS011;2301;47.354;8.528;2023-08-06T01:43:13;3.33;;;1.60;;
4577;SDS011;2301;47.354;8.528;2023-08-06T01:45:40;2.37;;;1.50;;
4577;SDS011;2301;47.354;8.528;2023-08-06T01:48:07;2.00;;;1.20;;
4577;SDS011;2301;47.354;8.528;2023-08-06T01:50:34;2.30;;;1.40;;
4577;SDS011;2301;47.354;8.528;2023-08-06T01:53:02;2.10;;;1.40;;
4577;SDS011;2301;47.354;8.528;2023-08-06T01:55:30;3.23;;;1.53;;
4577;SDS011;2301;47.354;8.528;2023-08-06T01:57:59;2.40;;;1.33;;
4577;SDS011;2301;47.354;8.528;2023-08-06T02:00:26;2.47;;;1.50;;
4577;SDS011;2301;47.354;8.528;2023-08-06T02:02:54;3.50;;;1.40;;
4577;SDS011;2301;47.354;8.528;2023-08-06T02:05:20;2.10;;;1.40;;
4577;SDS011;2301;47.354;8.528;2023-08-06T02:07:47;2.40;;;1.40;;
4577;SDS011;2301;47.354;8.528;2023-08-06T02:10:16;1.90;;;1.20;;
4577;SDS011;2301;47.354;8.528;2023-08-06T02:12:43;2.00;;;1.20;;
4577;SDS011;2301;47.354;8.528;2023-08-06T02:15:10;2.60;;;1.40;;
4577;SDS011;2301;47.354;8.528;2023-08-06T02:17:37;2.20;;;1.40;;
4577;SDS011;2301;47.354;8.528;2023-08-06T02:20:04;2.10;;;1.30;;
4577;SDS011;2301;47.354;8.528;2023-08-06T02:22:32;3.17;;;1.47;;
4577;SDS011;2301;47.354;8.528;2023-08-06T02:24:59;2.27;;;1.30;;
4577;SDS011;2301;47.354;8.528;2023-08-06T02:27:27;3.17;;;1.27;;
4577;SDS011;2301;47.354;8.528;2023-08-06T02:29:54;2.03;;;1.13;;
4577;SDS011;2301;47.354;8.528;2023-08-06T02:32:21;2.20;;;1.40;;
4577;SDS011;2301;47.354;8.528;2023-08-06T02:34:48;2.30;;;1.40;;
4577;SDS011;2301;47.354;8.528;2023-08-06T02:37:15;3.00;;;1.50;;
4577;SDS011;2301;47.354;8.528;2023-08-06T02:39:42;2.47;;;1.40;;
4577;SDS011;2301;47.354;8.528;2023-08-06T02:42:09;2.10;;;1.30;;
4577;SDS011;2301;47.354;8.528;2023-08-06T02:44:37;2.00;;;1.30;;
4577;SDS011;2301;47.354;8.528;2023-08-06T02:47:05;3.50;;;1.50;;
4577;SDS011;2301;47.354;8.528;2023-08-06T02:49:32;3.00;;;1.23;;
4577;SDS011;2301;47.354;8.528;2023-08-06T02:51:58;2.10;;;1.40;;
4577;SDS011;2301;47.354;8.528;2023-08-06T02:54:25;3.27;;;1.40;;
4577;SDS011;2301;47.354;8.528;2023-08-06T02:56:52;2.50;;;1.60;;
4577;SDS011;2301;47.354;8.528;2023-08-06T02:59:19;2.10;;;1.27;;
4577;SDS011;2301;47.354;8.528;2023-08-06T03:01:47;2.37;;;1.50;;
4577;SDS011;2301;47.354;8.528;2023-08-06T03:04:14;2.27;;;1.57;;
4577;SDS011;2301;47.354;8.528;2023-08-06T03:06:43;2.50;;;1.40;;
4577;SDS011;2301;47.354;8.528;2023-08-06T03:09:10;2.53;;;1.60;;
4577;SDS011;2301;47.354;8.528;2023-08-06T03:11:36;2.63;;;1.37;;
4577;SDS011;2301;47.354;8.528;2023-08-06T03:14:03;2.20;;;1.30;;
4577;SDS011;2301;47.354;8.528;2023-08-06T03:16:30;2.93;;;1.33;;
4577;SDS011;2301;47.354;8.528;2023-08-06T03:18:59;5.10;;;1.30;;
4577;SDS011;2301;47.354;8.528;2023-08-06T03:21:26;2.40;;;1.50;;
4577;SDS011;2301;47.354;8.528;2023-08-06T03:23:53;2.40;;;1.57;;
4577;SDS011;2301;47.354;8.528;2023-08-06T03:26:20;2.90;;;1.50;;
4577;SDS011;2301;47.354;8.528;2023-08-06T03:28:47;2.10;;;1.40;;
4577;SDS011;2301;47.354;8.528;2023-08-06T03:31:14;3.87;;;1.30;;
4577;SDS011;2301;47.354;8.528;2023-08-06T03:33:41;2.07;;;1.23;;
4577;SDS011;2301;47.354;8.528;2023-08-06T03:36:09;3.37;;;1.47;;
4577;SDS011;2301;47.354;8.528;2023-08-06T03:38:36;2.30;;;1.40;;
4577;SDS011;2301;47.354;8.528;2023-08-06T03:41:03;4.93;;;1.23;;
4577;SDS011;2301;47.354;8.528;2023-08-06T03:43:29;2.10;;;1.30;;
4577;SDS011;2301;47.354;8.528;2023-08-06T03:45:56;2.80;;;1.50;;
4577;SDS011;2301;47.354;8.528;2023-08-06T03:48:23;2.43;;;1.50;;
4577;SDS011;2301;47.354;8.528;2023-08-06T03:50:50;3.00;;;1.40;;
4577;SDS011;2301;47.354;8.528;2023-08-06T03:53:19;2.77;;;1.50;;
4577;SDS011;2301;47.354;8.528;2023-08-06T03:55:46;2.40;;;1.13;;
4577;SDS011;2301;47.354;8.528;2023-08-06T03:58:12;2.00;;;1.10;;
4577;SDS011;2301;47.354;8.528;2023-08-06T04:00:39;2.73;;;1.47;;
4577;SDS011;2301;47.354;8.528;2023-08-06T04:03:06;2.53;;;1.57;;
4577;SDS011;2301;47.354;8.528;2023-08-06T04:05:33;2.50;;;1.27;;
4577;SDS011;2301;47.354;8.528;2023-08-06T04:08:00;2.13;;;1.20;;
4577;SDS011;2301;47.354;8.528;2023-08-06T04:10:28;2.67;;;1.50;;
4577;SDS011;2301;47.354;8.528;2023-08-06T04:12:55;3.23;;;1.40;;
4577;SDS011;2301;47.354;8.528;2023-08-06T04:15:22;2.07;;;1.30;;
4577;SDS011;2301;47.354;8.528;2023-08-06T04:17:49;2.80;;;1.27;;
4577;SDS011;2301;47.354;8.528;2023-08-06T04:20:16;2.23;;;1.30;;
4577;SDS011;2301;47.354;8.528;2023-08-06T04:22:43;2.10;;;1.30;;
4577;SDS011;2301;47.354;8.528;2023-08-06T04:25:10;2.83;;;1.50;;
4577;SDS011;2301;47.354;8.528;2023-08-06T04:27:38;2.20;;;1.20;;
4577;SDS011;2301;47.354;8.528;2023-08-06T04:30:07;2.97;;;1.50;;
4577;SDS011;2301;47.354;8.528;2023-08-06T04:32:34;1.80;;;1.10;;
4577;SDS011;2301;47.354;8.528;2023-08-06T04:35:01;8.07;;;1.70;;
4577;SDS011;2301;47.354;8.528;2023-08-06T04:37:28;3.43;;;1.50;;
4577;SDS011;2301;47.354;8.528;2023-08-06T04:39:55;2.50;;;1.30;;
4577;SDS011;2301;47.354;8.528;2023-08-06T04:42:22;2.50;;;1.30;;
4577;SDS011;2301;47.354;8.528;2023-08-06T04:44:50;3.10;;;1.50;;
4577;SDS011;2301;47.354;8.528;2023-08-06T04:47:17;3.10;;;1.30;;
4577;SDS011;2301;47.354;8.528;2023-08-06T04:49:44;3.30;;;1.33;;
4577;SDS011;2301;47.354;8.528;2023-08-06T04:52:11;6.43;;;1.80;;
4577;SDS011;2301;47.354;8.528;2023-08-06T04:54:38;2.73;;;1.23;;
4577;SDS011;2301;47.354;8.528;2023-08-06T04:57:05;4.43;;;1.40;;
4577;SDS011;2301;47.354;8.528;2023-08-06T04:59:32;4.00;;;1.13;;
4577;SDS011;2301;47.354;8.528;2023-08-06T05:02:00;2.57;;;1.00;;
4577;SDS011;2301;47.354;8.528;2023-08-06T05:04:27;2.00;;;1.10;;
4577;SDS011;2301;47.354;8.528;2023-08-06T05:06:54;2.57;;;1.20;;
4577;SDS011;2301;47.354;8.528;2023-08-06T05:09:21;2.73;;;1.40;;
4577;SDS011;2301;47.354;8.528;2023-08-06T05:11:48;2.60;;;1.27;;
4577;SDS011;2301;47.354;8.528;2023-08-06T05:14:15;2.17;;;1.00;;
4577;SDS011;2301;47.354;8.528;2023-08-06T05:16:42;2.30;;;1.27;;
4577;SDS011;2301;47.354;8.528;2023-08-06T05:19:13;3.10;;;1.20;;
4577;SDS011;2301;47.354;8.528;2023-08-06T05:21:43;2.83;;;1.30;;
4577;SDS011;2301;47.354;8.528;2023-08-06T05:24:10;6.97;;;1.30;;
4577;SDS011;2301;47.354;8.528;2023-08-06T05:26:37;3.00;;;1.27;;
4577;SDS011;2301;47.354;8.528;2023-08-06T05:29:04;2.37;;;1.10;;
4577;SDS011;2301;47.354;8.528;2023-08-06T05:31:31;11.17;;;1.30;;
4577;SDS011;2301;47.354;8.528;2023-08-06T05:33:58;2.13;;;1.00;;
4577;SDS011;2301;47.354;8.528;2023-08-06T05:36:27;4.90;;;1.20;;
4577;SDS011;2301;47.354;8.528;2023-08-06T05:38:54;2.13;;;1.00;;
4577;SDS011;2301;47.354;8.528;2023-08-06T05:41:20;3.00;;;1.10;;
4577;SDS011;2301;47.354;8.528;2023-08-06T05:43:47;2.30;;;1.20;;
4577;SDS011;2301;47.354;8.528;2023-08-06T05:46:14;2.30;;;1.20;;
4577;SDS011;2301;47.354;8.528;2023-08-06T05:48:41;1.90;;;1.00;;
4577;SDS011;2301;47.354;8.528;2023-08-06T05:51:08;2.53;;;1.10;;
4577;SDS011;2301;47.354;8.528;2023-08-06T05:53:39;2.00;;;1.00;;
4577;SDS011;2301;47.354;8.528;2023-08-06T05:56:06;3.17;;;1.30;;
4577;SDS011;2301;47.354;8.528;2023-08-06T05:58:32;2.30;;;1.10;;
4577;SDS011;2301;47.354;8.528;2023-08-06T06:00:59;1.80;;;0.90;;
4577;SDS011;2301;47.354;8.528;2023-08-06T06:03:26;2.53;;;1.30;;
4577;SDS011;2301;47.354;8.528;2023-08-06T06:05:53;2.67;;;1.20;;
4577;SDS011;2301;47.354;8.528;2023-08-06T06:08:20;2.10;;;1.00;;
4577;SDS011;2301;47.354;8.528;2023-08-06T06:10:48;2.13;;;0.90;;
4577;SDS011;2301;47.354;8.528;2023-08-06T06:13:15;2.70;;;1.20;;
4577;SDS011;2301;47.354;8.528;2023-08-06T06:15:42;2.30;;;1.07;;
4577;SDS011;2301;47.354;8.528;2023-08-06T06:18:09;7.73;;;1.10;;
4577;SDS011;2301;47.354;8.528;2023-08-06T06:20:36;3.43;;;1.30;;
4577;SDS011;2301;47.354;8.528;2023-08-06T06:23:02;3.17;;;1.30;;
4577;SDS011;2301;47.354;8.528;2023-08-06T06:25:29;2.43;;;1.00;;
4577;SDS011;2301;47.354;8.528;2023-08-06T06:27:57;3.60;;;1.00;;
4577;SDS011;2301;47.354;8.528;2023-08-06T06:30:24;1.90;;;1.00;;
4577;SDS011;2301;47.354;8.528;2023-08-06T06:32:51;2.10;;;0.90;;
4577;SDS011;2301;47.354;8.528;2023-08-06T06:35:18;1.80;;;0.90;;
4577;SDS011;2301;47.354;8.528;2023-08-06T06:37:45;2.17;;;1.00;;
4577;SDS011;2301;47.354;8.528;2023-08-06T06:40:12;2.47;;;1.10;;
4577;SDS011;2301;47.354;8.528;2023-08-06T06:42:39;2.17;;;1.10;;
4577;SDS011;2301;47.354;8.528;2023-08-06T06:45:08;2.93;;;1.10;;
4577;SDS011;2301;47.354;8.528;2023-08-06T06:47:35;3.60;;;1.10;;
4577;SDS011;2301;47.354;8.528;2023-08-06T06:50:02;3.10;;;1.00;;
4577;SDS011;2301;47.354;8.528;2023-08-06T06:52:30;2.20;;;1.00;;
4577;SDS011;2301;47.354;8.528;2023-08-06T06:54:57;7.20;;;1.20;;
4577;SDS011;2301;47.354;8.528;2023-08-06T06:57:23;2.60;;;1.20;;
4577;SDS011;2301;47.354;8.528;2023-08-06T06:59:50;2.13;;;0.90;;
4577;SDS011;2301;47.354;8.528;2023-08-06T07:02:19;3.17;;;1.00;;
4577;SDS011;2301;47.354;8.528;2023-08-06T07:04:46;2.90;;;1.10;;
4577;SDS011;2301;47.354;8.528;2023-08-06T07:07:13;2.73;;;1.07;;
4577;SDS011;2301;47.354;8.528;2023-08-06T07:09:40;2.90;;;1.30;;
4577;SDS011;2301;47.354;8.528;2023-08-06T07:12:07;1.70;;;0.90;;
4577;SDS011;2301;47.354;8.528;2023-08-06T07:14:34;3.17;;;1.00;;
4577;SDS011;2301;47.354;8.528;2023-08-06T07:17:01;1.90;;;0.90;;
4577;SDS011;2301;47.354;8.528;2023-08-06T07:19:29;2.20;;;1.07;;
4577;SDS011;2301;47.354;8.528;2023-08-06T07:21:56;2.37;;;1.00;;
4577;SDS011;2301;47.354;8.528;2023-08-06T07:24:23;1.90;;;1.10;;
4577;SDS011;2301;47.354;8.528;2023-08-06T07:26:50;2.30;;;1.00;;
4577;SDS011;2301;47.354;8.528;2023-08-06T07:29:17;2.27;;;1.00;;
4577;SDS011;2301;47.354;8.528;2023-08-06T07:31:46;2.60;;;1.47;;
4577;SDS011;2301;47.354;8.528;2023-08-06T07:34:14;3.60;;;0.90;;
4577;SDS011;2301;47.354;8.528;2023-08-06T07:36:44;5.30;;;1.30;;
4577;SDS011;2301;47.354;8.528;2023-08-06T07:39:12;2.47;;;1.00;;
4577;SDS011;2301;47.354;8.528;2023-08-06T07:41:39;2.43;;;1.00;;
4577;SDS011;2301;47.354;8.528;2023-08-06T07:44:06;2.60;;;1.00;;
4577;SDS011;2301;47.354;8.528;2023-08-06T07:46:33;2.63;;;1.00;;
4577;SDS011;2301;47.354;8.528;2023-08-06T07:49:00;2.00;;;1.00;;
4577;SDS011;2301;47.354;8.528;2023-08-06T07:51:27;3.47;;;1.10;;
4577;SDS011;2301;47.354;8.528;2023-08-06T07:53:55;2.20;;;1.20;;
4577;SDS011;2301;47.354;8.528;2023-08-06T07:56:22;3.73;;;1.10;;
4577;SDS011;2301;47.354;8.528;2023-08-06T07:58:49;2.00;;;0.90;;
4577;SDS011;2301;47.354;8.528;2023-08-06T08:01:16;2.60;;;1.20;;
4577;SDS011;2301;47.354;8.528;2023-08-06T08:03:43;2.10;;;1.00;;
4577;SDS011;2301;47.354;8.528;2023-08-06T08:06:10;3.10;;;1.20;;
4577;SDS011;2301;47.354;8.528;2023-08-06T08:08:37;2.93;;;1.03;;
4577;SDS011;2301;47.354;8.528;2023-08-06T08:11:05;3.03;;;1.10;;
4577;SDS011;2301;47.354;8.528;2023-08-06T08:13:32;4.47;;;1.10;;
4577;SDS011;2301;47.354;8.528;2023-08-06T08:16:00;3.03;;;1.17;;
4577;SDS011;2301;47.354;8.528;2023-08-06T08:18:27;2.10;;;1.10;;
4577;SDS011;2301;47.354;8.528;2023-08-06T08:20:56;10.20;;;1.97;;
4577;SDS011;2301;47.354;8.528;2023-08-06T08:23:23;3.60;;;1.23;;
4577;SDS011;2301;47.354;8.528;2023-08-06T08:26:08;2.27;;;0.97;;
4577;SDS011;2301;47.354;8.528;2023-08-06T08:28:35;2.77;;;1.00;;
4577;SDS011;2301;47.354;8.528;2023-08-06T08:31:02;1.93;;;1.00;;
4577;SDS011;2301;47.354;8.528;2023-08-06T08:33:29;2.43;;;1.00;;
4577;SDS011;2301;47.354;8.528;2023-08-06T08:35:56;2.77;;;1.00;;
4577;SDS011;2301;47.354;8.528;2023-08-06T08:38:23;1.97;;;1.00;;
4577;SDS011;2301;47.354;8.528;2023-08-06T08:40:51;1.70;;;0.90;;
4577;SDS011;2301;47.354;8.528;2023-08-06T08:43:21;3.00;;;1.00;;
4577;SDS011;2301;47.354;8.528;2023-08-06T08:45:49;1.90;;;0.93;;
4577;SDS011;2301;47.354;8.528;2023-08-06T08:48:17;2.17;;;1.00;;
4577;SDS011;2301;47.354;8.528;2023-08-06T08:50:46;1.80;;;0.90;;
4577;SDS011;2301;47.354;8.528;2023-08-06T08:53:15;2.20;;;1.00;;
4577;SDS011;2301;47.354;8.528;2023-08-06T08:55:43;2.47;;;0.90;;
4577;SDS011;2301;47.354;8.528;2023-08-06T08:58:13;2.63;;;1.00;;
4577;SDS011;2301;47.354;8.528;2023-08-06T09:00:42;2.37;;;1.00;;
4577;SDS011;2301;47.354;8.528;2023-08-06T09:03:10;2.77;;;0.97;;
4577;SDS011;2301;47.354;8.528;2023-08-06T09:05:38;2.30;;;1.00;;
4577;SDS011;2301;47.354;8.528;2023-08-06T09:08:10;2.00;;;0.90;;
4577;SDS011;2301;47.354;8.528;2023-08-06T09:10:41;3.07;;;1.00;;
4577;SDS011;2301;47.354;8.528;2023-08-06T09:13:10;1.80;;;0.83;;
4577;SDS011;2301;47.354;8.528;2023-08-06T09:15:37;1.80;;;0.80;;
4577;SDS011;2301;47.354;8.528;2023-08-06T09:18:10;2.30;;;1.00;;
4577;SDS011;2301;47.354;8.528;2023-08-06T09:20:38;2.07;;;0.90;;
4577;SDS011;2301;47.354;8.528;2023-08-06T09:23:08;1.87;;;0.93;;
4577;SDS011;2301;47.354;8.528;2023-08-06T09:25:36;2.30;;;0.97;;
4577;SDS011;2301;47.354;8.528;2023-08-06T09:28:05;2.60;;;1.10;;
4577;SDS011;2301;47.354;8.528;2023-08-06T09:30:33;2.00;;;0.90;;
4577;SDS011;2301;47.354;8.528;2023-08-06T09:33:01;2.40;;;0.90;;
4577;SDS011;2301;47.354;8.528;2023-08-06T09:35:30;1.90;;;0.80;;
4577;SDS011;2301;47.354;8.528;2023-08-06T09:38:04;2.50;;;1.00;;
4577;SDS011;2301;47.354;8.528;2023-08-06T09:40:33;1.80;;;0.80;;
4577;SDS011;2301;47.354;8.528;2023-08-06T09:43:00;2.93;;;1.00;;
4577;SDS011;2301;47.354;8.528;2023-08-06T09:45:30;1.77;;;0.83;;
4577;SDS011;2301;47.354;8.528;2023-08-06T09:47:58;1.87;;;0.90;;
4577;SDS011;2301;47.354;8.528;2023-08-06T09:50:28;2.10;;;1.00;;
4577;SDS011;2301;47.354;8.528;2023-08-06T09:52:58;2.00;;;0.80;;
4577;SDS011;2301;47.354;8.528;2023-08-06T09:55:26;2.23;;;0.80;;
4577;SDS011;2301;47.354;8.528;2023-08-06T09:57:53;1.90;;;0.83;;
4577;SDS011;2301;47.354;8.528;2023-08-06T10:00:21;1.60;;;0.80;;
4577;SDS011;2301;47.354;8.528;2023-08-06T10:02:49;1.80;;;0.90;;
4577;SDS011;2301;47.354;8.528;2023-08-06T10:05:20;1.80;;;0.90;;
4577;SDS011;2301;47.354;8.528;2023-08-06T10:07:49;2.47;;;0.83;;
4577;SDS011;2301;47.354;8.528;2023-08-06T10:10:17;1.80;;;0.90;;
4577;SDS011;2301;47.354;8.528;2023-08-06T10:12:46;2.03;;;0.90;;
4577;SDS011;2301;47.354;8.528;2023-08-06T10:15:16;1.60;;;0.80;;
4577;SDS011;2301;47.354;8.528;2023-08-06T10:17:47;1.70;;;0.70;;
4577;SDS011;2301;47.354;8.528;2023-08-06T10:20:17;1.90;;;0.90;;
4577;SDS011;2301;47.354;8.528;2023-08-06T10:22:54;2.00;;;0.90;;
4577;SDS011;2301;47.354;8.528;2023-08-06T10:25:26;2.30;;;0.90;;
4577;SDS011;2301;47.354;8.528;2023-08-06T10:27:58;1.60;;;0.80;;
4577;SDS011;2301;47.354;8.528;2023-08-06T10:30:26;2.20;;;0.80;;
4577;SDS011;2301;47.354;8.528;2023-08-06T10:32:54;3.67;;;0.90;;
4577;SDS011;2301;47.354;8.528;2023-08-06T10:35:35;1.80;;;0.87;;
4577;SDS011;2301;47.354;8.528;2023-08-06T10:38:17;2.93;;;1.00;;
4577;SDS011;2301;47.354;8.528;2023-08-06T10:40:48;2.00;;;0.90;;
4577;SDS011;2301;47.354;8.528;2023-08-06T10:43:24;1.80;;;0.80;;
4577;SDS011;2301;47.354;8.528;2023-08-06T10:45:53;3.30;;;0.90;;
4577;SDS011;2301;47.354;8.528;2023-08-06T10:48:28;2.00;;;0.83;;
4577;SDS011;2301;47.354;8.528;2023-08-06T10:50:56;1.80;;;0.90;;
4577;SDS011;2301;47.354;8.528;2023-08-06T10:53:24;2.20;;;0.90;;
4577;SDS011;2301;47.354;8.528;2023-08-06T10:55:51;1.80;;;0.90;;
4577;SDS011;2301;47.354;8.528;2023-08-06T10:58:18;1.60;;;0.70;;
4577;SDS011;2301;47.354;8.528;2023-08-06T11:00:46;1.70;;;0.80;;
4577;SDS011;2301;47.354;8.528;2023-08-06T11:03:17;1.77;;;0.80;;
4577;SDS011;2301;47.354;8.528;2023-08-06T11:05:48;2.63;;;0.80;;
4577;SDS011;2301;47.354;8.528;2023-08-06T11:08:24;1.70;;;0.87;;
4577;SDS011;2301;47.354;8.528;2023-08-06T11:10:52;1.80;;;0.80;;
4577;SDS011;2301;47.354;8.528;2023-08-06T11:13:19;1.60;;;0.70;;
4577;SDS011;2301;47.354;8.528;2023-08-06T11:15:46;1.80;;;0.80;;
4577;SDS011;2301;47.354;8.528;2023-08-06T11:18:13;1.57;;;0.70;;
4577;SDS011;2301;47.354;8.528;2023-08-06T11:20:40;1.63;;;0.80;;
4577;SDS011;2301;47.354;8.528;2023-08-06T11:23:09;2.47;;;1.13;;
4577;SDS011;2301;47.354;8.528;2023-08-06T11:25:38;1.70;;;0.80;;
4577;SDS011;2301;47.354;8.528;2023-08-06T11:28:11;1.90;;;0.80;;
4577;SDS011;2301;47.354;8.528;2023-08-06T11:30:38;1.87;;;0.80;;
4577;SDS011;2301;47.354;8.528;2023-08-06T11:33:06;2.37;;;0.90;;
4577;SDS011;2301;47.354;8.528;2023-08-06T11:35:34;1.90;;;0.90;;
4577;SDS011;2301;47.354;8.528;2023-08-06T11:38:02;1.80;;;0.80;;
4577;SDS011;2301;47.354;8.528;2023-08-06T11:40:29;2.00;;;0.90;;
4577;SDS011;2301;47.354;8.528;2023-08-06T11:43:01;1.67;;;0.80;;
4577;SDS011;2301;47.354;8.528;2023-08-06T11:45:30;2.00;;;0.80;;
4577;SDS011;2301;47.354;8.528;2023-08-06T11:47:59;1.70;;;0.80;;
4577;SDS011;2301;47.354;8.528;2023-08-06T11:50:26;2.00;;;0.90;;
4577;SDS011;2301;47.354;8.528;2023-08-06T11:52:56;1.70;;;0.90;;
4577;SDS011;2301;47.354;8.528;2023-08-06T11:55:25;1.80;;;0.87;;
4577;SDS011;2301;47.354;8.528;2023-08-06T11:57:54;2.37;;;0.90;;
4577;SDS011;2301;47.354;8.528;2023-08-06T12:00:24;1.80;;;0.90;;
4577;SDS011;2301;47.354;8.528;2023-08-06T12:02:52;1.80;;;0.80;;
4577;SDS011;2301;47.354;8.528;2023-08-06T12:05:21;2.20;;;0.90;;
4577;SDS011;2301;47.354;8.528;2023-08-06T12:07:50;1.70;;;0.90;;
4577;SDS011;2301;47.354;8.528;2023-08-06T12:10:18;1.80;;;0.90;;
4577;SDS011;2301;47.354;8.528;2023-08-06T12:12:45;2.63;;;0.83;;
4577;SDS011;2301;47.354;8.528;2023-08-06T12:15:12;1.80;;;1.00;;
4577;SDS011;2301;47.354;8.528;2023-08-06T12:17:41;1.70;;;0.80;;
4577;SDS011;2301;47.354;8.528;2023-08-06T12:20:08;1.90;;;0.87;;
4577;SDS011;2301;47.354;8.528;2023-08-06T12:22:37;1.70;;;0.83;;
4577;SDS011;2301;47.354;8.528;2023-08-06T12:25:05;1.60;;;0.80;;
4577;SDS011;2301;47.354;8.528;2023-08-06T12:27:34;1.70;;;0.80;;
4577;SDS011;2301;47.354;8.528;2023-08-06T12:30:01;1.83;;;0.80;;
4577;SDS011;2301;47.354;8.528;2023-08-06T12:32:28;1.70;;;0.80;;
4577;SDS011;2301;47.354;8.528;2023-08-06T12:34:57;1.93;;;0.80;;
4577;SDS011;2301;47.354;8.528;2023-08-06T12:37:25;1.60;;;0.80;;
4577;SDS011;2301;47.354;8.528;2023-08-06T12:39:52;1.97;;;0.80;;
4577;SDS011;2301;47.354;8.528;2023-08-06T12:42:19;1.80;;;0.80;;
4577;SDS011;2301;47.354;8.528;2023-08-06T12:44:46;1.70;;;0.80;;
4577;SDS011;2301;47.354;8.528;2023-08-06T12:47:15;2.00;;;0.80;;
4577;SDS011;2301;47.354;8.528;2023-08-06T12:49:42;1.87;;;0.87;;
4577;SDS011;2301;47.354;8.528;2023-08-06T12:52:10;1.60;;;0.80;;
4577;SDS011;2301;47.354;8.528;2023-08-06T12:54:40;2.13;;;0.90;;
4577;SDS011;2301;47.354;8.528;2023-08-06T12:57:07;1.80;;;0.80;;
4577;SDS011;2301;47.354;8.528;2023-08-06T12:59:34;1.80;;;0.80;;
4577;SDS011;2301;47.354;8.528;2023-08-06T13:02:01;2.43;;;1.00;;
4577;SDS011;2301;47.354;8.528;2023-08-06T13:04:28;3.60;;;0.90;;
4577;SDS011;2301;47.354;8.528;2023-08-06T13:06:55;2.10;;;0.90;;
4577;SDS011;2301;47.354;8.528;2023-08-06T13:09:24;1.90;;;0.80;;
4577;SDS011;2301;47.354;8.528;2023-08-06T13:11:51;2.73;;;0.93;;
4577;SDS011;2301;47.354;8.528;2023-08-06T13:14:18;3.60;;;1.00;;
4577;SDS011;2301;47.354;8.528;2023-08-06T13:16:45;1.80;;;0.87;;
4577;SDS011;2301;47.354;8.528;2023-08-06T13:19:12;1.70;;;0.80;;
4577;SDS011;2301;47.354;8.528;2023-08-06T13:21:58;1.90;;;1.00;;
4577;SDS011;2301;47.354;8.528;2023-08-06T13:24:27;2.53;;;1.00;;
4577;SDS011;2301;47.354;8.528;2023-08-06T13:26:56;1.80;;;0.80;;
4577;SDS011;2301;47.354;8.528;2023-08-06T13:29:24;1.60;;;0.80;;
4577;SDS011;2301;47.354;8.528;2023-08-06T13:31:51;1.80;;;0.90;;
4577;SDS011;2301;47.354;8.528;2023-08-06T13:34:21;2.37;;;1.00;;
4577;SDS011;2301;47.354;8.528;2023-08-06T13:36:50;1.67;;;0.87;;
4577;SDS011;2301;47.354;8.528;2023-08-06T13:39:17;1.70;;;0.80;;
4577;SDS011;2301;47.354;8.528;2023-08-06T13:41:48;1.80;;;0.83;;
4577;SDS011;2301;47.354;8.528;2023-08-06T13:44:17;1.70;;;0.90;;
4577;SDS011;2301;47.354;8.528;2023-08-06T13:46:46;1.70;;;0.90;;
4577;SDS011;2301;47.354;8.528;2023-08-06T13:49:13;1.67;;;0.80;;
4577;SDS011;2301;47.354;8.528;2023-08-06T13:51:41;1.60;;;0.80;;
4577;SDS011;2301;47.354;8.528;2023-08-06T13:54:10;1.60;;;0.80;;
4577;SDS011;2301;47.354;8.528;2023-08-06T13:56:39;1.70;;;0.90;;
4577;SDS011;2301;47.354;8.528;2023-08-06T13:59:07;2.10;;;1.00;;
4577;SDS011;2301;47.354;8.528;2023-08-06T14:01:38;1.90;;;0.90;;
4577;SDS011;2301;47.354;8.528;2023-08-06T14:04:05;1.90;;;0.80;;
4577;SDS011;2301;47.354;8.528;2023-08-06T14:06:39;1.67;;;0.80;;
4577;SDS011;2301;47.354;8.528;2023-08-06T14:09:05;2.43;;;0.80;;
4577;SDS011;2301;47.354;8.528;2023-08-06T14:11:33;1.70;;;0.90;;
4577;SDS011;2301;47.354;8.528;2023-08-06T14:14:00;2.10;;;0.90;;
4577;SDS011;2301;47.354;8.528;2023-08-06T14:16:29;2.00;;;0.90;;
4577;SDS011;2301;47.354;8.528;2023-08-06T14:18:56;2.10;;;1.07;;
4577;SDS011;2301;47.354;8.528;2023-08-06T14:21:22;2.20;;;0.93;;
4577;SDS011;2301;47.354;8.528;2023-08-06T14:23:49;1.87;;;0.93;;
4577;SDS011;2301;47.354;8.528;2023-08-06T14:26:16;1.80;;;0.90;;
4577;SDS011;2301;47.354;8.528;2023-08-06T14:28:43;4.80;;;1.20;;
4577;SDS011;2301;47.354;8.528;2023-08-06T14:31:10;1.70;;;0.90;;
4577;SDS011;2301;47.354;8.528;2023-08-06T14:33:39;1.97;;;1.00;;
4577;SDS011;2301;47.354;8.528;2023-08-06T14:36:06;1.90;;;1.00;;
4577;SDS011;2301;47.354;8.528;2023-08-06T14:38:33;2.60;;;1.00;;
4577;SDS011;2301;47.354;8.528;2023-08-06T14:41:00;1.70;;;0.90;;
4577;SDS011;2301;47.354;8.528;2023-08-06T14:43:27;1.90;;;0.90;;
4577;SDS011;2301;47.354;8.528;2023-08-06T14:45:54;1.90;;;1.00;;
4577;SDS011;2301;47.354;8.528;2023-08-06T14:48:20;1.90;;;0.90;;
4577;SDS011;2301;47.354;8.528;2023-08-06T14:50:49;2.20;;;1.07;;
4577;SDS011;2301;47.354;8.528;2023-08-06T14:53:16;2.47;;;0.90;;
4577;SDS011;2301;47.354;8.528;2023-08-06T14:55:43;3.33;;;1.00;;
4577;SDS011;2301;47.354;8.528;2023-08-06T14:58:09;2.00;;;1.00;;
4577;SDS011;2301;47.354;8.528;2023-08-06T15:00:36;3.90;;;1.00;;
4577;SDS011;2301;47.354;8.528;2023-08-06T15:03:03;2.10;;;1.00;;
4577;SDS011;2301;47.354;8.528;2023-08-06T15:05:30;1.80;;;1.00;;
4577;SDS011;2301;47.354;8.528;2023-08-06T15:07:59;3.30;;;1.20;;
4577;SDS011;2301;47.354;8.528;2023-08-06T15:10:26;3.10;;;1.10;;
4577;SDS011;2301;47.354;8.528;2023-08-06T15:12:54;1.90;;;1.00;;
4577;SDS011;2301;47.354;8.528;2023-08-06T15:15:21;2.43;;;0.90;;
4577;SDS011;2301;47.354;8.528;2023-08-06T15:17:48;2.00;;;0.93;;
4577;SDS011;2301;47.354;8.528;2023-08-06T15:20:17;1.77;;;0.93;;